Time;durP1;ratioP1;P1;durP2;ratioP2;P2;SDS_P1;SDS_P2;PMS_P1;PMS_P2;Temp;Humidity;BMP_temperature;BMP_pressure;BME280_temperature;BME280_humidity;BME280_pressure;Samples;Min_cycle;Max_cycle;Signal;HPM_P1;HPM_P2
2023/02/16 00:01:45;;;;;;;110.60;54.60;;;;;;;-2.55;100.00;98943.08;106148;1254;70015;-77
2023/02/16 00:04:18;;;;;;;118.50;56.50;;;;;;;-2.56;100.00;98944.58;106090;1254;61560;-77
2023/02/16 00:06:44;;;;;;;116.10;56.00;;;;;;;-2.55;100.00;98947.16;106018;1256;139433;-80
2023/02/16 00:09:11;;;;;;;119.50;54.30;;;;;;;-2.54;100.00;98948.19;106092;1259;60526;-77
2023/02/16 00:14:24;;;;;;;151.60;72.10;;;;;;;-2.57;100.00;98939.64;105907;1257;69832;-80
2023/02/16 00:16:52;;;;;;;127.10;56.60;;;;;;;-2.60;100.00;98939.95;105920;1259;71483;-80
2023/02/16 00:19:26;;;;;;;137.50;59.80;;;;;;;-2.59;100.00;98941.55;106105;1254;60401;-80
2023/02/16 00:21:54;;;;;;;121.80;59.70;;;;;;;-2.59;100.00;98937.11;105855;1254;60547;-77
2023/02/16 00:24:20;;;;;;;112.70;54.10;;;;;;;-2.58;100.00;98931.77;106234;1256;73737;-77
2023/02/16 00:26:47;;;;;;;122.70;54.00;;;;;;;-2.57;100.00;98931.76;105972;1254;60281;-77
2023/02/16 00:29:27;;;;;;;134.50;57.10;;;;;;;-2.56;100.00;98931.01;106093;1254;60485;-76
2023/02/16 00:31:54;;;;;;;122.30;58.70;;;;;;;-2.57;100.00;98930.88;106080;1252;60295;-78
2023/02/16 00:34:26;;;;;;;121.40;58.90;;;;;;;-2.57;100.00;98928.97;106122;1254;60450;-79
2023/02/16 00:36:53;;;;;;;124.40;56.90;;;;;;;-2.59;100.00;98929.14;106161;1254;72838;-76
2023/02/16 00:39:19;;;;;;;135.90;63.90;;;;;;;-2.62;100.00;98924.84;106102;1256;69774;-76
2023/02/16 00:41:52;;;;;;;136.30;61.30;;;;;;;-2.63;100.00;98926.10;105924;1259;60547;-78
2023/02/16 00:44:21;;;;;;;134.10;67.50;;;;;;;-2.63;100.00;98921.55;105958;1254;60608;-76
2023/02/16 00:46:47;;;;;;;146.80;68.30;;;;;;;-2.66;100.00;98915.85;106294;1254;59285;-76
2023/02/16 00:49:15;;;;;;;133.20;64.10;;;;;;;-2.69;100.00;98909.59;106173;1254;60910;-76
2023/02/16 00:51:41;;;;;;;136.50;64.30;;;;;;;-2.73;100.00;98905.34;106214;1254;70083;-78
2023/02/16 00:54:08;;;;;;;125.20;61.10;;;;;;;-2.76;100.00;98897.70;106193;1253;72573;-78
2023/02/16 00:56:34;;;;;;;112.30;50.70;;;;;;;-2.81;100.00;98896.73;106248;1254;60495;-76
2023/02/16 00:59:01;;;;;;;105.90;50.80;;;;;;;-2.77;100.00;98896.58;105944;1254;60488;-79
2023/02/16 01:01:31;;;;;;;104.40;47.90;;;;;;;-2.68;100.00;98897.85;106181;1254;73824;-76
2023/02/16 01:04:01;;;;;;;82.70;43.20;;;;;;;-2.64;100.00;98892.11;106183;1254;70794;-78
2023/02/16 01:12:05;;;;;;;63.40;32.20;;;;;;;-2.44;100.00;98885.75;106247;1253;60358;-76
2023/02/16 01:14:31;;;;;;;75.00;37.50;;;;;;;-2.42;100.00;98880.62;106043;1254;73688;-76
2023/02/16 01:16:57;;;;;;;78.10;38.20;;;;;;;-2.41;100.00;98875.50;106231;1254;60546;-77
2023/02/16 01:19:24;;;;;;;92.20;42.60;;;;;;;-2.37;100.00;98873.39;106152;1256;60517;-78
2023/02/16 01:21:50;;;;;;;69.60;34.30;;;;;;;-2.39;100.00;98871.19;106238;1256;60555;-78
2023/02/16 01:24:17;;;;;;;78.30;33.40;;;;;;;-2.35;100.00;98867.94;106202;1256;60542;-76
2023/02/16 01:26:46;;;;;;;64.00;30.60;;;;;;;-2.27;100.00;98871.60;106235;1254;61114;-76
2023/02/16 01:29:19;;;;;;;70.50;31.30;;;;;;;-2.22;100.00;98871.77;106162;1253;70914;-76
2023/02/16 01:31:46;;;;;;;80.60;38.30;;;;;;;-2.26;100.00;98866.88;106269;1256;62759;-76
2023/02/16 01:34:12;;;;;;;79.40;38.20;;;;;;;-2.33;100.00;98864.96;106125;1256;60415;-76
2023/02/16 01:36:49;;;;;;;86.40;43.60;;;;;;;-2.41;100.00;98859.22;106183;1256;60335;-78
2023/02/16 01:39:17;;;;;;;100.70;46.90;;;;;;;-2.51;100.00;98854.57;106169;1256;74949;-76
2023/02/16 01:41:53;;;;;;;104.10;53.00;;;;;;;-2.62;100.00;98852.05;106259;1256;69328;-78
2023/02/16 01:44:23;;;;;;;112.20;51.70;;;;;;;-2.74;100.00;98847.48;105845;1259;72948;-76
2023/02/16 01:47:01;;;;;;;93.60;43.00;;;;;;;-2.81;100.00;98841.67;106186;1254;60522;-76
2023/02/16 01:49:27;;;;;;;77.00;39.10;;;;;;;-2.88;100.00;98844.65;106241;1254;60342;-78
2023/02/16 01:52:05;;;;;;;83.20;39.80;;;;;;;-2.87;100.00;98839.52;106183;1256;60513;-77
2023/02/16 01:54:42;;;;;;;65.70;30.00;;;;;;;-2.89;100.00;98833.33;106167;1253;71028;-76
2023/02/16 01:57:11;;;;;;;77.00;34.20;;;;;;;-2.91;100.00;98830.82;106143;1254;73004;-78
2023/02/16 01:59:43;;;;;;;;;;;;;;;-2.91;100.00;98829.56;105974;1254;60631;-76
2023/02/16 02:02:17;;;;;;;67.00;32.00;;;;;;;-2.89;100.00;98826.19;106216;1253;60511;-76
2023/02/16 02:05:35;;;;;;;68.60;33.60;;;;;;;-2.88;100.00;98828.04;106156;1256;65134;-76
2023/02/16 02:08:22;;;;;;;62.80;31.20;;;;;;;-2.89;100.00;98828.40;105483;1265;69478;-78
2023/02/16 02:11:23;;;;;;;63.10;29.60;;;;;;;-2.85;100.00;98825.18;106143;1256;71383;-78
2023/02/16 02:13:53;;;;;;;79.50;35.20;;;;;;;-2.85;100.00;98825.81;106070;1256;60414;-78
2023/02/16 02:16:20;;;;;;;60.60;28.50;;;;;;;-2.90;100.00;98817.63;106280;1253;60405;-79
2023/02/16 02:18:47;;;;;;;71.70;32.30;;;;;;;-2.93;100.00;98812.97;106163;1254;73850;-77
2023/02/16 02:24:39;;;;;;;69.00;34.10;;;;;;;-2.92;100.00;98803.83;106189;1254;70867;-76
2023/02/16 02:27:21;;;;;;;71.50;33.50;;;;;;;-2.90;100.00;98803.27;106275;1256;60543;-77
2023/02/16 02:29:57;;;;;;;73.20;35.60;;;;;;;-2.90;100.00;98803.84;105953;1254;60418;-78
2023/02/16 02:32:48;;;;;;;64.50;32.10;;;;;;;-2.94;100.00;98802.45;106352;1256;66081;-79
2023/02/16 02:35:19;;;;;;;68.20;35.50;;;;;;;-2.92;100.00;98802.97;106271;1254;62416;-79
2023/02/16 02:37:47;;;;;;;73.60;34.80;;;;;;;-2.88;100.00;98802.30;106286;1254;70656;-78
2023/02/16 02:40:40;;;;;;;70.20;35.80;;;;;;;-2.83;100.00;98799.47;106165;1254;61105;-76
2023/02/16 02:43:15;;;;;;;69.30;34.80;;;;;;;-2.84;100.00;98799.91;105914;1254;60326;-76
2023/02/16 02:45:48;;;;;;;61.10;31.50;;;;;;;-2.85;100.00;98803.03;106171;1254;72646;-76
2023/02/16 02:48:14;;;;;;;60.80;28.30;;;;;;;-2.86;100.00;98799.86;106022;1254;70942;-79
2023/02/16 02:53:46;;;;;;;56.80;28.90;;;;;;;-2.90;100.00;98797.23;106140;1256;60411;-79
2023/02/16 03:01:50;;;;;;;48.60;25.70;;;;;;;-2.96;100.00;98794.92;106121;1254;70715;-77
2023/02/16 03:04:17;;;;;;;;;;;;;;;-2.94;100.00;98799.68;106153;1254;72519;-77
2023/02/16 03:06:46;;;;;;;43.60;20.20;;;;;;;-2.92;100.00;98800.48;106169;1259;60642;-77
2023/02/16 03:09:13;;;;;;;38.90;19.00;;;;;;;-2.88;100.00;98799.70;106127;1255;60359;-80
2023/02/16 03:14:51;;;;;;;49.50;22.20;;;;;;;-2.64;100.00;98803.27;106136;1254;62516;-80
2023/02/16 03:31:13;;;;;;;57.10;29.00;;;;;;;-1.91;100.00;98811.94;106145;1257;72396;-80
2023/02/16 03:33:39;;;;;;;52.00;27.70;;;;;;;-2.15;100.00;98812.33;105903;1254;61218;-77
2023/02/16 03:36:06;;;;;;;56.20;26.00;;;;;;;-2.36;100.00;98812.72;106153;1257;60507;-78
2023/02/16 03:38:32;;;;;;;39.50;19.80;;;;;;;-2.49;100.00;98816.93;105958;1253;72604;-80
2023/02/16 03:40:59;;;;;;;45.20;23.70;;;;;;;-2.47;100.00;98815.29;105943;1258;61493;-77
2023/02/16 03:43:26;;;;;;;47.10;23.00;;;;;;;-2.30;100.00;98817.75;106051;1256;60394;-80
2023/02/16 03:45:52;;;;;;;43.80;21.90;;;;;;;-2.21;100.00;98819.95;105942;1260;60562;-78
2023/02/16 03:48:19;;;;;;;50.70;25.00;;;;;;;-2.29;100.00;98825.44;106122;1257;60341;-78
2023/02/16 03:50:45;;;;;;;68.80;36.70;;;;;;;-2.51;100.00;98829.09;106190;1256;60463;-80
2023/02/16 03:53:12;;;;;;;65.40;35.70;;;;;;;-2.65;100.00;98827.62;106096;1257;60524;-79
2023/02/16 03:55:43;;;;;;;42.90;24.20;;;;;;;-2.71;100.00;98822.73;106131;1257;60463;-79
2023/02/16 03:58:14;;;;;;;46.90;23.40;;;;;;;-2.72;100.00;98817.86;105873;1259;60373;-77
2023/02/16 04:00:40;;;;;;;45.70;22.30;;;;;;;-2.75;100.00;98817.96;105975;1254;60518;-77
2023/02/16 04:03:07;;;;;;;49.10;23.80;;;;;;;-2.77;100.00;98820.20;106148;1257;60435;-79
2023/02/16 04:05:34;;;;;;;50.70;25.40;;;;;;;-2.80;100.00;98816.35;105920;1259;70279;-79
2023/02/16 04:08:00;;;;;;;49.90;25.60;;;;;;;-2.84;100.00;98814.89;106097;1254;71444;-78
2023/02/16 04:10:27;;;;;;;49.70;24.90;;;;;;;-2.84;100.00;98811.38;106150;1256;60327;-80
2023/02/16 04:12:53;;;;;;;47.40;23.00;;;;;;;-2.83;100.00;98808.48;106186;1257;60468;-80
2023/02/16 04:15:22;;;;;;;45.50;21.00;;;;;;;-2.86;100.00;98814.32;106085;1254;60552;-79
2023/02/16 04:17:48;;;;;;;49.60;25.20;;;;;;;-2.95;100.00;98811.23;105945;1258;70027;-77
2023/02/16 04:20:17;;;;;;;55.20;25.00;;;;;;;-3.00;100.00;98808.30;106126;1259;61064;-77
2023/02/16 04:22:44;;;;;;;;;;;;;;;-3.04;100.00;98804.55;106270;1254;60454;-77
2023/02/16 04:25:10;;;;;;;39.20;20.60;;;;;;;-3.09;100.00;98799.66;105882;1259;60538;-79
2023/02/16 04:27:37;;;;;;;47.60;25.70;;;;;;;-3.09;100.00;98797.84;106121;1256;73707;-77
2023/02/16 04:30:04;;;;;;;49.90;25.20;;;;;;;-3.07;100.00;98796.05;105930;1259;70942;-77
2023/02/16 04:32:31;;;;;;;47.40;26.40;;;;;;;-3.10;100.00;98796.70;106207;1256;71459;-79
2023/02/16 04:34:57;;;;;;;46.70;23.70;;;;;;;-3.14;100.00;98797.46;106122;1256;60563;-79
2023/02/16 04:37:23;;;;;;;54.90;26.20;;;;;;;-3.16;100.00;98793.50;106177;1256;60543;-78
2023/02/16 04:39:50;;;;;;;50.00;25.40;;;;;;;-3.17;100.00;98791.83;106144;1256;60536;-76
2023/02/16 04:42:16;;;;;;;52.70;24.10;;;;;;;-3.18;100.00;98791.01;106017;1257;60539;-78
2023/02/16 04:44:43;;;;;;;56.70;27.80;;;;;;;-3.16;100.00;98783.43;106127;1256;61048;-76
2023/02/16 04:47:09;;;;;;;51.10;25.80;;;;;;;-3.13;100.00;98791.61;106139;1257;60432;-78
2023/02/16 04:49:36;;;;;;;49.00;26.10;;;;;;;-3.12;100.00;98792.11;106124;1256;60457;-78
2023/02/16 04:52:03;;;;;;;51.70;25.50;;;;;;;-3.13;100.00;98787.61;106172;1257;61043;-76
2023/02/16 04:54:30;;;;;;;51.70;25.50;;;;;;;-3.13;100.00;98786.83;106103;1256;60427;-78
2023/02/16 04:56:57;;;;;;;49.40;25.80;;;;;;;-3.11;100.00;98788.13;106191;1257;71463;-75
2023/02/16 04:59:23;;;;;;;49.50;26.40;;;;;;;-3.09;100.00;98789.66;106185;1256;60472;-76
2023/02/16 05:01:50;;;;;;;50.30;26.30;;;;;;;-3.08;100.00;98789.11;106251;1254;60494;-78
2023/02/16 05:04:16;;;;;;;44.10;25.80;;;;;;;-3.10;100.00;98789.65;106180;1256;60513;-76
2023/02/16 05:06:42;;;;;;;39.20;20.40;;;;;;;-2.94;100.00;98790.85;106214;1257;60507;-76
2023/02/16 05:09:09;;;;;;;30.40;15.80;;;;;;;-2.64;100.00;98792.69;106180;1257;60508;-76
2023/02/16 05:17:18;;;;;;;44.80;23.10;;;;;;;-1.71;100.00;98789.85;106212;1256;73820;-78
2023/02/16 05:19:46;;;;;;;53.60;29.50;;;;;;;-1.63;100.00;98787.17;106240;1256;70000;-76
2023/02/16 05:22:13;;;;;;;44.60;27.30;;;;;;;-1.78;100.00;98792.07;106182;1254;71496;-76
2023/02/16 05:24:40;;;;;;;60.40;30.60;;;;;;;-1.97;100.00;98791.77;106171;1254;60501;-78
2023/02/16 05:27:08;;;;;;;66.80;32.00;;;;;;;-2.18;100.00;98790.05;106167;1257;60406;-78
2023/02/16 05:29:35;;;;;;;26.20;13.80;;;;;;;-2.37;100.00;98789.34;106192;1256;73760;-78
2023/02/16 05:32:01;;;;;;;41.00;22.00;;;;;;;-2.24;100.00;98783.61;105985;1257;60533;-78
2023/02/16 05:34:27;;;;;;;22.10;12.30;;;;;;;-1.97;100.00;98785.56;106160;1256;60446;-76
2023/02/16 05:36:54;;;;;;;57.00;28.30;;;;;;;-1.85;100.00;98791.75;106150;1256;60553;-79
2023/02/16 05:39:20;;;;;;;53.80;28.60;;;;;;;-1.81;100.00;98793.04;106194;1256;59539;-76
2023/02/16 05:41:47;;;;;;;58.70;28.40;;;;;;;-2.01;100.00;98796.33;106248;1256;61460;-76
2023/02/16 05:44:14;;;;;;;56.70;26.40;;;;;;;-2.25;100.00;98798.36;105987;1254;71021;-76
2023/02/16 05:46:41;;;;;;;46.90;23.30;;;;;;;-2.40;100.00;98800.18;106156;1257;71491;-76
2023/02/16 05:49:07;;;;;;;39.90;23.20;;;;;;;-2.54;100.00;98794.55;106250;1259;60575;-76
2023/02/16 05:51:34;;;;;;;47.60;26.00;;;;;;;-2.60;100.00;98794.52;105985;1254;60354;-77
2023/02/16 05:54:01;;;;;;;49.60;25.50;;;;;;;-2.67;100.00;98797.66;106138;1257;73690;-77
2023/02/16 05:56:27;;;;;;;45.70;24.10;;;;;;;-2.77;100.00;98801.27;106205;1257;70033;-78
2023/02/16 05:58:54;;;;;;;45.50;23.40;;;;;;;-2.84;100.00;98802.20;106138;1254;71468;-78
2023/02/16 06:01:20;;;;;;;46.50;26.70;;;;;;;-2.89;100.00;98805.41;106193;1266;60517;-76
2023/02/16 06:03:47;;;;;;;56.90;26.80;;;;;;;-2.94;100.00;98801.20;106236;1257;60883;-76
2023/02/16 06:06:13;;;;;;;59.50;29.20;;;;;;;-2.95;100.00;98799.98;106096;1259;74185;-79
2023/02/16 06:08:40;;;;;;;56.60;26.80;;;;;;;-2.96;100.00;98797.44;105926;1254;60550;-76
2023/02/16 06:11:34;;;;;;;56.30;26.80;;;;;;;-2.94;100.00;98801.63;106108;1257;61345;-76
2023/02/16 06:13:56;;;;;;;43.10;23.80;;;;;;;-2.93;100.00;98803.97;106101;1254;61375;-76
2023/02/16 06:16:26;;;;;;;34.00;19.10;;;;;;;-2.91;100.00;98801.38;106101;1252;61333;-78
2023/02/16 06:18:53;;;;;;;40.40;21.40;;;;;;;-2.89;100.00;98803.13;106199;1254;73492;-76
2023/02/16 06:21:20;;;;;;;55.80;25.80;;;;;;;-2.90;100.00;98805.39;106165;1257;62269;-78
2023/02/16 06:23:47;;;;;;;52.20;28.60;;;;;;;-2.88;100.00;98806.58;106092;1266;72567;-76
2023/02/16 06:26:13;;;;;;;60.20;29.00;;;;;;;-2.88;100.00;98802.38;105856;1254;61765;-78
2023/02/16 06:28:40;;;;;;;64.20;29.60;;;;;;;-2.85;100.00;98804.63;105904;1258;61273;-78
2023/02/16 06:31:06;;;;;;;54.00;28.50;;;;;;;-2.77;100.00;98812.13;106068;1259;61867;-78
2023/02/16 06:33:33;;;;;;;56.80;28.40;;;;;;;-2.70;100.00;98815.65;106155;1259;61228;-77
2023/02/16 06:35:59;;;;;;;50.40;27.80;;;;;;;-2.65;100.00;98812.53;106147;1257;61321;-78
2023/02/16 06:38:26;;;;;;;67.60;29.10;;;;;;;-2.62;100.00;98811.15;106835;1257;62348;-79
2023/02/16 06:40:53;;;;;;;58.70;28.80;;;;;;;-2.57;100.00;98807.10;106954;1256;61215;-78
2023/02/16 06:43:19;;;;;;;65.50;32.10;;;;;;;-2.54;100.00;98805.85;106184;1257;73675;-76
2023/02/16 06:45:46;;;;;;;64.60;30.80;;;;;;;-2.47;100.00;98808.10;106485;1254;61234;-77
2023/02/16 06:48:13;;;;;;;70.00;31.40;;;;;;;-2.40;100.00;98811.63;106807;1254;71467;-76
2023/02/16 06:50:39;;;;;;;66.20;31.50;;;;;;;-2.34;100.00;98810.77;107233;1254;61239;-78
2023/02/16 06:53:06;;;;;;;63.30;31.00;;;;;;;-2.30;100.00;98814.04;106233;1254;61298;-78
2023/02/16 06:55:35;;;;;;;69.30;36.00;;;;;;;-2.23;100.00;98818.03;106326;1258;61262;-76
2023/02/16 06:58:03;;;;;;;64.70;33.60;;;;;;;-2.13;100.00;98816.62;106370;1254;70931;-76
2023/02/16 07:00:29;;;;;;;68.00;35.50;;;;;;;-2.02;100.00;98821.55;107784;1255;72570;-77
2023/02/16 07:02:56;;;;;;;65.90;34.10;;;;;;;-1.97;100.00;98817.03;106336;1257;61337;-78
2023/02/16 07:05:22;;;;;;;61.80;31.10;;;;;;;-1.89;100.00;98813.64;106284;1257;62073;-78
2023/02/16 07:07:49;;;;;;;72.30;34.90;;;;;;;-1.85;100.00;98814.24;106492;1254;61225;-78
2023/02/16 07:10:15;;;;;;;71.30;33.70;;;;;;;-1.77;100.00;98811.54;108779;1254;61159;-79
2023/02/16 07:12:42;;;;;;;97.10;37.50;;;;;;;-1.69;100.00;98810.95;107303;1254;71470;-78
2023/02/16 07:15:09;;;;;;;72.80;36.20;;;;;;;-1.51;100.00;98807.34;106356;1257;61282;-78
2023/02/16 07:17:35;;;;;;;75.30;35.40;;;;;;;-1.36;100.00;98812.82;106660;1257;61320;-78
2023/02/16 07:20:04;;;;;;;112.10;51.90;;;;;;;-1.27;100.00;98814.45;107467;1256;74540;-78
2023/02/16 07:22:31;;;;;;;134.40;64.40;;;;;;;-1.13;100.00;98814.54;106608;1256;71027;-76
2023/02/16 07:24:59;;;;;;;81.90;39.20;;;;;;;-0.96;100.00;98816.23;106282;1259;70886;-76
2023/02/16 07:27:26;;;;;;;66.60;34.50;;;;;;;-0.73;100.00;98816.66;106404;1257;62215;-76
2023/02/16 07:29:53;;;;;;;151.80;63.40;;;;;;;-0.48;100.00;98815.83;108282;1260;61243;-77
2023/02/16 07:32:20;;;;;;;110.40;54.30;;;;;;;-0.13;100.00;98815.48;107341;1254;76442;-76
2023/02/16 07:34:47;;;;;;;147.50;82.00;;;;;;;0.18;100.00;98812.55;106754;1258;61224;-76
2023/02/16 07:37:13;;;;;;;70.20;33.70;;;;;;;0.38;100.00;98811.86;106140;1254;61357;-76
2023/02/16 07:39:40;;;;;;;55.50;29.30;;;;;;;0.36;100.00;98811.52;107290;1259;61253;-79
2023/02/16 07:42:06;;;;;;;63.20;34.00;;;;;;;0.28;100.00;98812.34;106646;1254;61156;-78
2023/02/16 07:44:33;;;;;;;59.20;34.90;;;;;;;0.25;100.00;98808.01;106206;1257;62262;-78
2023/02/16 07:47:00;;;;;;;54.00;29.40;;;;;;;0.32;100.00;98809.38;108447;1253;71121;-79
2023/02/16 07:49:26;;;;;;;76.90;34.00;;;;;;;0.44;100.00;98802.20;109353;1254;60069;-79
2023/02/16 07:51:53;;;;;;;52.50;28.50;;;;;;;0.54;100.00;98807.75;107867;1254;61368;-77
2023/02/16 07:54:19;;;;;;;60.50;29.30;;;;;;;0.65;100.00;98808.35;106887;1253;61279;-80
2023/02/16 07:56:46;;;;;;;71.20;33.30;;;;;;;0.85;100.00;98812.59;106466;1255;61329;-77
2023/02/16 07:59:14;;;;;;;133.20;52.30;;;;;;;1.02;100.00;98809.76;107682;1254;61210;-77
2023/02/16 08:01:40;;;;;;;273.50;117.70;;;;;;;1.16;100.00;98807.27;106697;1254;71441;-77
2023/02/16 08:04:07;;;;;;;160.10;89.20;;;;;;;1.30;100.00;98807.97;106193;1254;61371;-77
2023/02/16 08:06:34;;;;;;;154.80;85.10;;;;;;;1.41;100.00;98799.90;106237;1254;61212;-77
2023/02/16 08:09:00;;;;;;;90.40;46.40;;;;;;;1.52;100.00;98801.04;107387;1254;74571;-76
2023/02/16 08:11:27;;;;;;;73.70;33.80;;;;;;;1.64;100.00;98799.98;106441;1256;70184;-76
2023/02/16 08:13:53;;;;;;;58.00;26.70;;;;;;;1.79;100.00;98797.13;106414;1253;61410;-76
2023/02/16 08:16:21;;;;;;;42.50;21.80;;;;;;;1.93;100.00;98795.13;106283;1257;61384;-81
2023/02/16 08:18:49;;;;;;;43.30;24.10;;;;;;;2.06;100.00;98797.31;106850;1254;61195;-76
2023/02/16 08:21:18;;;;;;;42.20;19.40;;;;;;;2.16;100.00;98795.16;106428;1253;74490;-76
2023/02/16 08:23:46;;;;;;;135.70;53.00;;;;;;;2.28;100.00;98795.31;107225;1257;71441;-78
2023/02/16 08:26:15;;;;;;;107.40;48.20;;;;;;;2.39;100.00;98792.79;106250;1255;72547;-76
2023/02/16 08:28:46;;;;;;;49.00;23.40;;;;;;;2.49;100.00;98797.26;106895;1254;61221;-76
2023/02/16 08:31:17;;;;;;;50.30;26.40;;;;;;;2.62;99.67;98786.28;106625;1254;61509;-76
2023/02/16 08:33:44;;;;;;;38.70;22.30;;;;;;;2.75;98.81;98787.98;106083;1257;75715;-78
2023/02/16 08:36:18;;;;;;;54.80;31.40;;;;;;;2.88;97.77;98786.82;106221;1254;71113;-76
2023/02/16 08:38:45;;;;;;;49.30;28.30;;;;;;;2.99;97.21;98786.49;107095;1254;71520;-77
2023/02/16 08:41:12;;;;;;;47.70;20.80;;;;;;;3.08;96.85;98786.63;106959;1254;61272;-76
2023/02/16 08:43:38;;;;;;;43.50;23.10;;;;;;;3.18;96.32;98781.46;106285;1254;61222;-78
2023/02/16 08:46:06;;;;;;;44.40;22.10;;;;;;;3.30;95.35;98782.89;106206;1257;62321;-78
2023/02/16 08:48:34;;;;;;;60.50;29.80;;;;;;;3.38;95.15;98782.30;106729;1257;70172;-76
2023/02/16 08:51:02;;;;;;;38.40;20.10;;;;;;;3.45;94.91;98777.86;106486;1257;72530;-78
2023/02/16 08:53:32;;;;;;;49.70;24.20;;;;;;;3.52;95.00;98779.67;106318;1253;61371;-76
2023/02/16 08:55:59;;;;;;;55.60;25.00;;;;;;;3.62;94.66;98778.36;106256;1254;61227;-79
2023/02/16 08:58:25;;;;;;;73.20;31.30;;;;;;;3.74;93.73;98778.95;106658;1254;74594;-76
2023/02/16 09:00:52;;;;;;;56.10;28.60;;;;;;;3.86;93.21;98784.63;106990;1254;61339;-76
2023/02/16 09:03:18;;;;;;;54.50;28.00;;;;;;;3.99;91.72;98782.44;106963;1254;61227;-77
2023/02/16 09:05:46;;;;;;;49.80;25.40;;;;;;;4.09;91.17;98775.70;106206;1257;61305;-78
2023/02/16 09:08:15;;;;;;;44.60;23.00;;;;;;;4.21;90.67;98777.46;107186;1253;61184;-76
2023/02/16 09:10:42;;;;;;;;;;;;;;;4.31;90.12;98777.23;107050;1254;73733;-76
2023/02/16 09:13:12;;;;;;;37.40;15.60;;;;;;;4.40;88.83;98776.70;106332;1254;70058;-78
2023/02/16 09:15:40;;;;;;;33.50;14.80;;;;;;;4.51;88.02;98776.27;106334;1254;71610;-78
2023/02/16 09:18:08;;;;;;;40.30;22.40;;;;;;;4.65;87.91;98773.27;108098;1254;61113;-79
2023/02/16 09:20:40;;;;;;;35.50;17.50;;;;;;;4.77;87.94;98773.64;107570;1253;61219;-77
2023/02/16 09:23:07;;;;;;;41.00;20.20;;;;;;;4.91;87.48;98778.02;106549;1258;74535;-78
2023/02/16 09:25:34;;;;;;;44.10;22.10;;;;;;;5.03;87.53;98778.41;106265;1254;69953;-76
2023/02/16 09:28:02;;;;;;;48.20;22.90;;;;;;;5.15;87.39;98775.73;106312;1254;72619;-75
2023/02/16 09:30:28;;;;;;;40.10;19.20;;;;;;;5.25;87.98;98774.89;106610;1252;61254;-79
2023/02/16 09:32:55;;;;;;;40.10;19.80;;;;;;;5.35;88.08;98774.58;106413;1254;61156;-76
2023/02/16 09:35:21;;;;;;;38.10;17.10;;;;;;;5.51;86.88;98776.79;106095;1256;74530;-76
2023/02/16 09:37:48;;;;;;;34.40;18.60;;;;;;;5.68;86.47;98771.23;106335;1256;61320;-78
2023/02/16 09:40:15;;;;;;;33.20;16.80;;;;;;;5.81;86.12;98765.95;107892;1254;73472;-79
2023/02/16 09:43:23;;;;;;;29.50;14.90;;;;;;;5.96;85.99;98763.48;106406;1254;61113;-79
2023/02/16 09:45:50;;;;;;;29.10;15.80;;;;;;;6.12;84.75;98767.06;105996;1257;61170;-79
2023/02/16 09:48:23;;;;;;;32.60;16.20;;;;;;;6.22;84.05;98764.49;107318;1254;74252;-77
2023/02/16 09:50:51;;;;;;;36.80;18.40;;;;;;;6.34;84.28;98761.92;107238;1256;71855;-78
2023/02/16 09:53:21;;;;;;;29.70;15.10;;;;;;;6.48;83.03;98768.59;106148;1257;72520;-78
2023/02/16 09:56:01;;;;;;;34.10;19.40;;;;;;;6.64;82.08;98763.66;107148;1257;61167;-78
2023/02/16 09:58:50;;;;;;;37.90;15.60;;;;;;;6.79;81.14;98765.35;107015;1253;61310;-76
2023/02/16 10:01:53;;;;;;;41.40;21.20;;;;;;;6.95;82.01;98765.41;109322;1253;74556;-79
2023/02/16 10:04:37;;;;;;;39.50;22.10;;;;;;;6.98;84.16;98764.44;109381;1254;72689;-79
2023/02/16 10:07:30;;;;;;;29.10;16.70;;;;;;;7.00;85.34;98766.01;109191;1256;72904;-77
2023/02/16 10:09:57;;;;;;;33.30;17.20;;;;;;;7.01;84.66;98763.45;109317;1252;58976;-77
2023/02/16 10:12:25;;;;;;;36.40;19.40;;;;;;;7.05;86.54;98765.13;109252;1253;59085;-75
2023/02/16 10:14:55;;;;;;;34.50;19.60;;;;;;;7.10;86.87;98766.04;109068;1253;74524;-77
2023/02/16 10:17:36;;;;;;;40.20;21.90;;;;;;;7.16;86.53;98767.30;109287;1253;71150;-78
2023/02/16 10:20:09;;;;;;;30.60;16.90;;;;;;;7.30;85.27;98761.96;108160;1254;73036;-77
2023/02/16 10:22:59;;;;;;;32.40;18.20;;;;;;;7.40;84.25;98759.99;107327;1252;61253;-76
2023/02/16 10:25:57;;;;;;;27.10;13.20;;;;;;;7.52;82.42;98765.98;106544;1252;61374;-78
2023/02/16 10:28:35;;;;;;;21.60;12.80;;;;;;;7.60;79.68;98768.84;106884;1253;74545;-77
2023/02/16 10:31:10;;;;;;;26.70;13.20;;;;;;;7.64;78.31;98764.59;109105;1253;68942;-77
2023/02/16 10:33:44;;;;;;;21.40;11.40;;;;;;;7.69;77.54;98766.94;106393;1258;71453;-80
2023/02/16 10:36:45;;;;;;;20.10;12.20;;;;;;;7.77;77.78;98764.17;106347;1254;61231;-76
2023/02/16 10:39:12;;;;;;;29.10;16.70;;;;;;;7.81;75.60;98767.95;107457;1254;61196;-79
2023/02/16 10:41:42;;;;;;;29.40;15.90;;;;;;;7.72;75.57;98764.29;106576;1254;62339;-78
2023/02/16 10:44:35;;;;;;;31.80;14.70;;;;;;;7.69;76.10;98760.84;106505;1254;71129;-76
2023/02/16 10:47:03;;;;;;;33.60;14.60;;;;;;;7.76;76.38;98760.46;106427;1254;72560;-77
2023/02/16 10:49:31;;;;;;;35.20;21.00;;;;;;;7.80;75.04;98761.20;107808;1253;61093;-77
2023/02/16 10:51:58;;;;;;;25.10;13.60;;;;;;;7.80;75.54;98759.27;106515;1256;61128;-79
2023/02/16 10:54:26;;;;;;;35.80;21.00;;;;;;;7.79;75.91;98755.42;106276;1259;73564;-79
2023/02/16 10:56:56;;;;;;;53.90;28.10;;;;;;;7.88;75.88;98759.72;106674;1256;69908;-79
2023/02/16 10:59:23;;;;;;;61.80;29.70;;;;;;;7.95;75.87;98757.07;107646;1252;71470;-77
2023/02/16 11:01:56;;;;;;;42.30;17.30;;;;;;;7.95;74.64;98752.49;108048;1253;61343;-79
2023/02/16 11:04:37;;;;;;;20.90;9.60;;;;;;;7.93;74.84;98752.45;106881;1253;61218;-78
2023/02/16 11:07:11;;;;;;;24.20;15.20;;;;;;;7.91;73.99;98746.44;106670;1255;73467;-77
2023/02/16 11:09:38;;;;;;;23.80;14.80;;;;;;;7.91;74.55;98741.75;107101;1253;69947;-77
2023/02/16 11:12:39;;;;;;;24.90;14.30;;;;;;;7.91;74.26;98736.39;106231;1254;72752;-77
2023/02/16 11:15:20;;;;;;;25.20;16.40;;;;;;;7.94;74.00;98731.42;106696;1253;61241;-76
2023/02/16 11:17:51;;;;;;;26.50;14.40;;;;;;;8.01;73.55;98725.98;106340;1254;62102;-79
2023/02/16 11:20:28;;;;;;;22.50;13.10;;;;;;;8.00;73.57;98726.77;107747;1256;74601;-77
2023/02/16 11:23:16;;;;;;;25.50;14.00;;;;;;;7.98;74.84;98722.42;106755;1254;71052;-77
2023/02/16 11:26:11;;;;;;;24.20;12.40;;;;;;;8.03;75.28;98716.34;106219;1254;71854;-78
2023/02/16 11:28:44;;;;;;;27.90;12.90;;;;;;;8.08;74.00;98716.70;107275;1254;61155;-77
2023/02/16 11:31:19;;;;;;;24.60;12.10;;;;;;;8.08;73.46;98715.23;107149;1253;61263;-79
2023/02/16 11:33:55;;;;;;;20.30;11.50;;;;;;;8.11;73.69;98712.86;106225;1259;75704;-77
2023/02/16 11:36:42;;;;;;;18.20;10.30;;;;;;;8.15;73.92;98705.69;106573;1254;71489;-79
2023/02/16 11:39:22;;;;;;;21.50;9.90;;;;;;;8.19;73.80;98704.48;107755;1254;72582;-77
2023/02/16 11:41:50;;;;;;;22.80;11.80;;;;;;;8.27;74.50;98698.94;106664;1254;61211;-79
2023/02/16 11:44:26;;;;;;;20.40;11.30;;;;;;;8.34;73.47;98695.43;106873;1253;59362;-77
2023/02/16 11:46:52;;;;;;;27.20;13.80;;;;;;;8.41;72.72;98692.33;107686;1253;73405;-78
2023/02/16 11:49:37;;;;;;;37.60;16.50;;;;;;;8.45;72.25;98690.09;107722;1254;61232;-79
2023/02/16 11:52:40;;;;;;;41.30;20.60;;;;;;;8.51;71.84;98691.36;106660;1254;72790;-78
2023/02/16 11:55:19;;;;;;;56.60;25.60;;;;;;;8.53;72.17;98682.73;105565;1260;61308;-79
2023/02/16 11:57:47;;;;;;;61.20;28.50;;;;;;;8.58;71.04;98679.52;106207;1254;61336;-76
2023/02/16 12:00:20;;;;;;;50.20;24.90;;;;;;;8.57;71.53;98673.41;107679;1253;73735;-79
2023/02/16 12:03:12;;;;;;;56.60;28.00;;;;;;;8.58;70.68;98666.55;106958;1253;71077;-79
2023/02/16 12:06:17;;;;;;;46.50;23.30;;;;;;;8.58;70.61;98663.59;106676;1253;72496;-77